sensor_id;sensor_type;location;lat;lon;timestamp;temperature;humidity
32660;DHT22;19064;47.912;12.308;2023-10-09T00:02:05;14.00;99.90
32660;DHT22;19064;47.912;12.308;2023-10-09T00:04:33;14.00;99.90
32660;DHT22;19064;47.912;12.308;2023-10-09T00:07:02;13.90;99.90
32660;DHT22;19064;47.912;12.308;2023-10-09T00:09:33;13.90;99.90
32660;DHT22;19064;47.912;12.308;2023-10-09T00:12:13;13.80;99.90
32660;DHT22;19064;47.912;12.308;2023-10-09T00:14:43;13.80;99.90
32660;DHT22;19064;47.912;12.308;2023-10-09T00:17:14;13.80;99.90
32660;DHT22;19064;47.912;12.308;2023-10-09T00:19:44;13.80;99.90
32660;DHT22;19064;47.912;12.308;2023-10-09T00:22:14;13.80;99.90
32660;DHT22;19064;47.912;12.308;2023-10-09T00:24:52;13.80;99.90
32660;DHT22;19064;47.912;12.308;2023-10-09T00:27:37;13.70;99.90
32660;DHT22;19064;47.912;12.308;2023-10-09T00:30:10;13.70;99.90
32660;DHT22;19064;47.912;12.308;2023-10-09T00:32:41;13.50;99.90
32660;DHT22;19064;47.912;12.308;2023-10-09T00:35:24;13.40;99.90
32660;DHT22;19064;47.912;12.308;2023-10-09T00:38:07;13.30;99.90
32660;DHT22;19064;47.912;12.308;2023-10-09T00:40:41;13.30;99.90
32660;DHT22;19064;47.912;12.308;2023-10-09T00:43:12;13.20;99.90
32660;DHT22;19064;47.912;12.308;2023-10-09T00:45:41;13.30;99.90
32660;DHT22;19064;47.912;12.308;2023-10-09T00:48:10;13.30;99.90
32660;DHT22;19064;47.912;12.308;2023-10-09T00:50:40;13.40;99.90
32660;DHT22;19064;47.912;12.308;2023-10-09T00:53:17;13.40;99.90
32660;DHT22;19064;47.912;12.308;2023-10-09T00:55:45;13.30;99.90
32660;DHT22;19064;47.912;12.308;2023-10-09T00:58:21;13.20;99.90
32660;DHT22;19064;47.912;12.308;2023-10-09T01:00:53;13.10;99.90
32660;DHT22;19064;47.912;12.308;2023-10-09T01:03:21;13.20;99.90
32660;DHT22;19064;47.912;12.308;2023-10-09T01:05:49;13.10;99.90
32660;DHT22;19064;47.912;12.308;2023-10-09T01:08:23;13.10;99.90
32660;DHT22;19064;47.912;12.308;2023-10-09T01:10:54;13.10;99.90
32660;DHT22;19064;47.912;12.308;2023-10-09T01:13:23;13.00;99.90
32660;DHT22;19064;47.912;12.308;2023-10-09T01:16:06;13.00;99.90
32660;DHT22;19064;47.912;12.308;2023-10-09T01:18:34;13.10;99.90
32660;DHT22;19064;47.912;12.308;2023-10-09T01:21:06;13.10;99.90
32660;DHT22;19064;47.912;12.308;2023-10-09T01:23:34;13.10;99.90
32660;DHT22;19064;47.912;12.308;2023-10-09T01:26:08;13.20;99.90
32660;DHT22;19064;47.912;12.308;2023-10-09T01:28:35;13.10;99.90
32660;DHT22;19064;47.912;12.308;2023-10-09T01:31:02;13.20;99.90
32660;DHT22;19064;47.912;12.308;2023-10-09T01:33:29;13.20;99.90
32660;DHT22;19064;47.912;12.308;2023-10-09T01:36:01;13.20;99.90
32660;DHT22;19064;47.912;12.308;2023-10-09T01:38:28;13.30;99.90
32660;DHT22;19064;47.912;12.308;2023-10-09T01:41:10;13.30;99.90
32660;DHT22;19064;47.912;12.308;2023-10-09T01:43:41;13.20;99.90
32660;DHT22;19064;47.912;12.308;2023-10-09T01:46:10;13.30;99.90
32660;DHT22;19064;47.912;12.308;2023-10-09T01:48:37;13.40;99.90
32660;DHT22;19064;47.912;12.308;2023-10-09T01:51:05;13.40;99.90
32660;DHT22;19064;47.912;12.308;2023-10-09T01:53:34;13.40;99.90
32660;DHT22;19064;47.912;12.308;2023-10-09T01:56:12;13.30;99.90
32660;DHT22;19064;47.912;12.308;2023-10-09T01:58:42;13.40;99.90
32660;DHT22;19064;47.912;12.308;2023-10-09T02:01:12;13.30;99.90
32660;DHT22;19064;47.912;12.308;2023-10-09T02:03:40;13.30;99.90
32660;DHT22;19064;47.912;12.308;2023-10-09T02:06:08;13.30;99.90
32660;DHT22;19064;47.912;12.308;2023-10-09T02:08:51;13.40;99.90
32660;DHT22;19064;47.912;12.308;2023-10-09T02:11:20;13.40;99.90
32660;DHT22;19064;47.912;12.308;2023-10-09T02:14:02;13.50;99.90
32660;DHT22;19064;47.912;12.308;2023-10-09T02:16:41;13.40;99.90
32660;DHT22;19064;47.912;12.308;2023-10-09T02:19:08;13.40;99.90
32660;DHT22;19064;47.912;12.308;2023-10-09T02:21:54;13.50;99.90
32660;DHT22;19064;47.912;12.308;2023-10-09T02:24:23;13.50;99.90
32660;DHT22;19064;47.912;12.308;2023-10-09T02:27:09;13.50;99.90
32660;DHT22;19064;47.912;12.308;2023-10-09T02:29:37;13.50;99.90
32660;DHT22;19064;47.912;12.308;2023-10-09T02:32:07;13.50;99.90
32660;DHT22;19064;47.912;12.308;2023-10-09T02:34:41;13.40;99.90
32660;DHT22;19064;47.912;12.308;2023-10-09T02:37:12;13.50;99.90
32660;DHT22;19064;47.912;12.308;2023-10-09T02:39:39;13.40;99.90
32660;DHT22;19064;47.912;12.308;2023-10-09T02:42:14;13.40;99.90
32660;DHT22;19064;47.912;12.308;2023-10-09T02:44:49;13.40;99.90
32660;DHT22;19064;47.912;12.308;2023-10-09T02:47:17;13.40;99.90
32660;DHT22;19064;47.912;12.308;2023-10-09T02:49:46;13.50;99.90
32660;DHT22;19064;47.912;12.308;2023-10-09T02:52:16;13.50;99.90
32660;DHT22;19064;47.912;12.308;2023-10-09T02:54:45;13.60;99.90
32660;DHT22;19064;47.912;12.308;2023-10-09T02:57:14;13.60;99.90
32660;DHT22;19064;47.912;12.308;2023-10-09T02:59:49;13.60;99.90
32660;DHT22;19064;47.912;12.308;2023-10-09T03:02:17;13.70;99.90
32660;DHT22;19064;47.912;12.308;2023-10-09T03:04:45;13.60;99.90
32660;DHT22;19064;47.912;12.308;2023-10-09T03:07:12;13.50;99.90
32660;DHT22;19064;47.912;12.308;2023-10-09T03:09:39;13.60;99.90
32660;DHT22;19064;47.912;12.308;2023-10-09T03:12:07;13.50;99.90
32660;DHT22;19064;47.912;12.308;2023-10-09T03:14:37;13.40;99.90
32660;DHT22;19064;47.912;12.308;2023-10-09T03:17:05;13.40;99.90
32660;DHT22;19064;47.912;12.308;2023-10-09T03:19:37;13.40;99.90
32660;DHT22;19064;47.912;12.308;2023-10-09T03:22:04;13.40;99.90
32660;DHT22;19064;47.912;12.308;2023-10-09T03:24:34;13.40;99.90
32660;DHT22;19064;47.912;12.308;2023-10-09T03:27:02;13.40;99.90
32660;DHT22;19064;47.912;12.308;2023-10-09T03:29:28;13.40;99.90
32660;DHT22;19064;47.912;12.308;2023-10-09T03:31:57;13.30;99.90
32660;DHT22;19064;47.912;12.308;2023-10-09T03:34:25;13.20;99.90
32660;DHT22;19064;47.912;12.308;2023-10-09T03:36:53;13.20;99.90
32660;DHT22;19064;47.912;12.308;2023-10-09T03:39:29;13.10;99.90
32660;DHT22;19064;47.912;12.308;2023-10-09T03:42:06;13.10;99.90
32660;DHT22;19064;47.912;12.308;2023-10-09T03:44:37;13.10;99.90
32660;DHT22;19064;47.912;12.308;2023-10-09T03:47:11;13.00;99.90
32660;DHT22;19064;47.912;12.308;2023-10-09T03:49:42;12.90;99.90
32660;DHT22;19064;47.912;12.308;2023-10-09T03:52:11;12.90;99.90
32660;DHT22;19064;47.912;12.308;2023-10-09T03:54:42;12.80;99.90
32660;DHT22;19064;47.912;12.308;2023-10-09T03:57:11;12.80;99.90
32660;DHT22;19064;47.912;12.308;2023-10-09T03:59:39;12.90;99.90
32660;DHT22;19064;47.912;12.308;2023-10-09T04:02:08;13.00;99.90
32660;DHT22;19064;47.912;12.308;2023-10-09T04:04:36;12.90;99.90
32660;DHT22;19064;47.912;12.308;2023-10-09T04:07:03;12.70;99.90
32660;DHT22;19064;47.912;12.308;2023-10-09T04:09:32;12.70;99.90
32660;DHT22;19064;47.912;12.308;2023-10-09T04:12:05;12.60;99.90
32660;DHT22;19064;47.912;12.308;2023-10-09T04:14:50;12.50;99.90
32660;DHT22;19064;47.912;12.308;2023-10-09T04:17:20;12.50;99.90
32660;DHT22;19064;47.912;12.308;2023-10-09T04:20:02;12.70;99.90
32660;DHT22;19064;47.912;12.308;2023-10-09T04:23:03;12.70;99.90
32660;DHT22;19064;47.912;12.308;2023-10-09T04:25:31;12.80;99.90
32660;DHT22;19064;47.912;12.308;2023-10-09T04:28:07;12.90;99.90
32660;DHT22;19064;47.912;12.308;2023-10-09T04:30:39;13.00;99.90
32660;DHT22;19064;47.912;12.308;2023-10-09T04:33:08;13.00;99.90
32660;DHT22;19064;47.912;12.308;2023-10-09T04:35:55;13.10;99.90
32660;DHT22;19064;47.912;12.308;2023-10-09T04:38:39;13.00;99.90
32660;DHT22;19064;47.912;12.308;2023-10-09T04:41:18;12.90;99.90
32660;DHT22;19064;47.912;12.308;2023-10-09T04:43:53;12.80;99.90
32660;DHT22;19064;47.912;12.308;2023-10-09T04:46:29;12.90;99.90
32660;DHT22;19064;47.912;12.308;2023-10-09T04:49:09;12.80;99.90
32660;DHT22;19064;47.912;12.308;2023-10-09T04:51:53;12.90;99.90
32660;DHT22;19064;47.912;12.308;2023-10-09T04:54:31;12.90;99.90
32660;DHT22;19064;47.912;12.308;2023-10-09T04:57:25;12.90;99.90
32660;DHT22;19064;47.912;12.308;2023-10-09T04:59:52;13.00;99.90
32660;DHT22;19064;47.912;12.308;2023-10-09T05:02:23;13.00;99.90
32660;DHT22;19064;47.912;12.308;2023-10-09T05:04:50;13.10;99.90
32660;DHT22;19064;47.912;12.308;2023-10-09T05:07:39;13.00;99.90
32660;DHT22;19064;47.912;12.308;2023-10-09T05:10:20;13.10;99.90
32660;DHT22;19064;47.912;12.308;2023-10-09T05:12:51;13.20;99.90
32660;DHT22;19064;47.912;12.308;2023-10-09T05:15:22;13.30;99.90
32660;DHT22;19064;47.912;12.308;2023-10-09T05:17:52;13.30;99.90
32660;DHT22;19064;47.912;12.308;2023-10-09T05:20:22;13.20;99.90
32660;DHT22;19064;47.912;12.308;2023-10-09T05:23:07;13.20;99.90
32660;DHT22;19064;47.912;12.308;2023-10-09T05:25:52;13.20;99.90
32660;DHT22;19064;47.912;12.308;2023-10-09T05:28:24;13.20;99.90
32660;DHT22;19064;47.912;12.308;2023-10-09T05:31:07;13.20;99.90
32660;DHT22;19064;47.912;12.308;2023-10-09T05:33:35;13.20;99.90
32660;DHT22;19064;47.912;12.308;2023-10-09T05:36:03;13.30;99.90
32660;DHT22;19064;47.912;12.308;2023-10-09T05:38:58;13.30;99.90
32660;DHT22;19064;47.912;12.308;2023-10-09T05:41:41;13.20;99.90
32660;DHT22;19064;47.912;12.308;2023-10-09T05:44:18;13.20;99.90
32660;DHT22;19064;47.912;12.308;2023-10-09T05:47:03;13.20;99.90
32660;DHT22;19064;47.912;12.308;2023-10-09T05:49:47;13.20;99.90
32660;DHT22;19064;47.912;12.308;2023-10-09T05:52:27;13.30;99.90
32660;DHT22;19064;47.912;12.308;2023-10-09T05:55:29;13.30;99.90
32660;DHT22;19064;47.912;12.308;2023-10-09T05:58:13;13.40;99.90
32660;DHT22;19064;47.912;12.308;2023-10-09T06:00:57;13.60;99.90
32660;DHT22;19064;47.912;12.308;2023-10-09T06:03:41;13.60;99.90
32660;DHT22;19064;47.912;12.308;2023-10-09T06:06:20;13.60;99.90
32660;DHT22;19064;47.912;12.308;2023-10-09T06:09:01;13.70;99.90
32660;DHT22;19064;47.912;12.308;2023-10-09T06:11:47;13.70;99.90
32660;DHT22;19064;47.912;12.308;2023-10-09T06:14:21;13.80;99.90
32660;DHT22;19064;47.912;12.308;2023-10-09T06:16:51;13.80;99.90
32660;DHT22;19064;47.912;12.308;2023-10-09T06:19:27;13.90;99.90
32660;DHT22;19064;47.912;12.308;2023-10-09T06:21:54;13.80;99.90
32660;DHT22;19064;47.912;12.308;2023-10-09T06:25:06;13.90;99.90
32660;DHT22;19064;47.912;12.308;2023-10-09T06:27:36;14.00;99.90
32660;DHT22;19064;47.912;12.308;2023-10-09T06:30:16;14.00;99.90
32660;DHT22;19064;47.912;12.308;2023-10-09T06:32:52;14.00;99.90
32660;DHT22;19064;47.912;12.308;2023-10-09T06:35:33;14.00;99.90
32660;DHT22;19064;47.912;12.308;2023-10-09T06:38:01;14.10;99.90
32660;DHT22;19064;47.912;12.308;2023-10-09T06:40:48;14.00;99.90
32660;DHT22;19064;47.912;12.308;2023-10-09T06:43:34;14.10;99.90
32660;DHT22;19064;47.912;12.308;2023-10-09T06:46:15;14.10;99.90
32660;DHT22;19064;47.912;12.308;2023-10-09T06:48:59;14.10;99.90
32660;DHT22;19064;47.912;12.308;2023-10-09T06:51:44;14.20;99.90
32660;DHT22;19064;47.912;12.308;2023-10-09T06:54:12;14.30;99.90
32660;DHT22;19064;47.912;12.308;2023-10-09T06:56:41;14.60;99.90
32660;DHT22;19064;47.912;12.308;2023-10-09T06:59:26;14.80;99.90
32660;DHT22;19064;47.912;12.308;2023-10-09T07:02:07;15.00;99.90
32660;DHT22;19064;47.912;12.308;2023-10-09T07:04:47;15.20;99.90
32660;DHT22;19064;47.912;12.308;2023-10-09T07:07:20;15.30;99.90
32660;DHT22;19064;47.912;12.308;2023-10-09T07:09:46;15.30;99.90
32660;DHT22;19064;47.912;12.308;2023-10-09T07:12:27;15.50;99.90
32660;DHT22;19064;47.912;12.308;2023-10-09T07:14:55;15.40;99.90
32660;DHT22;19064;47.912;12.308;2023-10-09T07:17:27;15.50;99.90
32660;DHT22;19064;47.912;12.308;2023-10-09T07:20:09;15.60;99.90
32660;DHT22;19064;47.912;12.308;2023-10-09T07:22:41;15.70;99.90
32660;DHT22;19064;47.912;12.308;2023-10-09T07:25:22;15.80;99.90
32660;DHT22;19064;47.912;12.308;2023-10-09T07:28:08;16.00;99.90
32660;DHT22;19064;47.912;12.308;2023-10-09T07:30:59;16.10;99.90
32660;DHT22;19064;47.912;12.308;2023-10-09T07:33:26;16.20;99.90
32660;DHT22;19064;47.912;12.308;2023-10-09T07:36:16;16.30;99.90
32660;DHT22;19064;47.912;12.308;2023-10-09T07:38:55;16.30;99.90
32660;DHT22;19064;47.912;12.308;2023-10-09T07:41:22;16.30;99.90
32660;DHT22;19064;47.912;12.308;2023-10-09T07:44:05;16.30;99.90
32660;DHT22;19064;47.912;12.308;2023-10-09T07:47:01;16.30;99.90
32660;DHT22;19064;47.912;12.308;2023-10-09T07:49:42;16.40;99.90
32660;DHT22;19064;47.912;12.308;2023-10-09T07:52:14;16.50;99.90
32660;DHT22;19064;47.912;12.308;2023-10-09T07:54:41;16.60;99.90
32660;DHT22;19064;47.912;12.308;2023-10-09T07:57:15;16.70;99.90
32660;DHT22;19064;47.912;12.308;2023-10-09T07:59:43;16.90;99.90
32660;DHT22;19064;47.912;12.308;2023-10-09T08:02:21;17.00;99.90
32660;DHT22;19064;47.912;12.308;2023-10-09T08:04:57;17.20;99.90
32660;DHT22;19064;47.912;12.308;2023-10-09T08:07:29;17.40;99.90
32660;DHT22;19064;47.912;12.308;2023-10-09T08:10:02;17.70;99.90
32660;DHT22;19064;47.912;12.308;2023-10-09T08:12:46;17.80;99.90
32660;DHT22;19064;47.912;12.308;2023-10-09T08:15:45;18.00;99.90
32660;DHT22;19064;47.912;12.308;2023-10-09T08:18:19;18.30;99.90
32660;DHT22;19064;47.912;12.308;2023-10-09T08:20:53;18.50;99.90
32660;DHT22;19064;47.912;12.308;2023-10-09T08:23:34;18.60;99.90
32660;DHT22;19064;47.912;12.308;2023-10-09T08:26:14;18.60;99.90
32660;DHT22;19064;47.912;12.308;2023-10-09T08:28:55;18.50;99.90
32660;DHT22;19064;47.912;12.308;2023-10-09T08:31:41;18.50;99.90
32660;DHT22;19064;47.912;12.308;2023-10-09T08:34:13;18.50;99.90
32660;DHT22;19064;47.912;12.308;2023-10-09T08:36:52;18.50;99.90
32660;DHT22;19064;47.912;12.308;2023-10-09T08:39:19;18.40;99.90
32660;DHT22;19064;47.912;12.308;2023-10-09T08:41:53;18.40;99.90
32660;DHT22;19064;47.912;12.308;2023-10-09T08:44:24;18.50;99.90
32660;DHT22;19064;47.912;12.308;2023-10-09T08:46:53;18.70;99.90
32660;DHT22;19064;47.912;12.308;2023-10-09T08:49:22;18.70;99.90
32660;DHT22;19064;47.912;12.308;2023-10-09T08:51:48;18.80;99.90
32660;DHT22;19064;47.912;12.308;2023-10-09T08:54:18;18.80;99.90
32660;DHT22;19064;47.912;12.308;2023-10-09T08:56:46;18.90;99.90
32660;DHT22;19064;47.912;12.308;2023-10-09T08:59:16;18.90;99.90
32660;DHT22;19064;47.912;12.308;2023-10-09T09:01:45;19.00;99.90
32660;DHT22;19064;47.912;12.308;2023-10-09T09:04:40;19.20;99.90
32660;DHT22;19064;47.912;12.308;2023-10-09T09:07:26;19.30;99.90
32660;DHT22;19064;47.912;12.308;2023-10-09T09:09:55;19.40;99.90
32660;DHT22;19064;47.912;12.308;2023-10-09T09:12:25;19.50;99.90
32660;DHT22;19064;47.912;12.308;2023-10-09T09:14:56;19.60;99.90
32660;DHT22;19064;47.912;12.308;2023-10-09T09:17:25;19.70;99.90
32660;DHT22;19064;47.912;12.308;2023-10-09T09:19:57;19.90;99.90
32660;DHT22;19064;47.912;12.308;2023-10-09T09:22:24;19.90;99.90
32660;DHT22;19064;47.912;12.308;2023-10-09T09:24:57;19.90;99.90
32660;DHT22;19064;47.912;12.308;2023-10-09T09:27:44;19.90;99.90
32660;DHT22;19064;47.912;12.308;2023-10-09T09:30:25;20.00;99.90
32660;DHT22;19064;47.912;12.308;2023-10-09T09:32:57;20.00;99.90
32660;DHT22;19064;47.912;12.308;2023-10-09T09:35:55;20.10;99.90
32660;DHT22;19064;47.912;12.308;2023-10-09T09:38:25;20.30;99.90
32660;DHT22;19064;47.912;12.308;2023-10-09T09:40:55;20.30;99.90
32660;DHT22;19064;47.912;12.308;2023-10-09T09:43:23;20.40;99.90
32660;DHT22;19064;47.912;12.308;2023-10-09T09:45:52;20.40;99.90
32660;DHT22;19064;47.912;12.308;2023-10-09T09:48:23;20.40;99.90
32660;DHT22;19064;47.912;12.308;2023-10-09T09:50:54;20.50;99.90
32660;DHT22;19064;47.912;12.308;2023-10-09T09:53:20;20.50;99.90
32660;DHT22;19064;47.912;12.308;2023-10-09T09:55:50;20.60;99.90
32660;DHT22;19064;47.912;12.308;2023-10-09T09:58:21;20.50;99.90
32660;DHT22;19064;47.912;12.308;2023-10-09T10:00:51;20.50;99.90
32660;DHT22;19064;47.912;12.308;2023-10-09T10:03:21;20.60;99.90
32660;DHT22;19064;47.912;12.308;2023-10-09T10:05:51;20.60;99.90
32660;DHT22;19064;47.912;12.308;2023-10-09T10:08:23;20.70;99.90
32660;DHT22;19064;47.912;12.308;2023-10-09T10:10:57;20.80;99.90
32660;DHT22;19064;47.912;12.308;2023-10-09T10:13:55;20.80;99.90
32660;DHT22;19064;47.912;12.308;2023-10-09T10:16:26;20.90;99.90
32660;DHT22;19064;47.912;12.308;2023-10-09T10:19:00;21.00;99.90
32660;DHT22;19064;47.912;12.308;2023-10-09T10:21:33;21.00;99.90
32660;DHT22;19064;47.912;12.308;2023-10-09T10:24:41;21.20;99.90
32660;DHT22;19064;47.912;12.308;2023-10-09T10:27:21;21.30;99.90
32660;DHT22;19064;47.912;12.308;2023-10-09T10:32:54;21.60;99.90
32660;DHT22;19064;47.912;12.308;2023-10-09T10:35:23;21.60;99.90
32660;DHT22;19064;47.912;12.308;2023-10-09T10:38:24;21.60;99.90
32660;DHT22;19064;47.912;12.308;2023-10-09T10:40:52;21.70;99.90
32660;DHT22;19064;47.912;12.308;2023-10-09T10:43:24;21.80;99.90
32660;DHT22;19064;47.912;12.308;2023-10-09T10:46:03;21.90;99.90
32660;DHT22;19064;47.912;12.308;2023-10-09T10:48:39;22.00;99.90
32660;DHT22;19064;47.912;12.308;2023-10-09T10:51:12;22.10;99.90
32660;DHT22;19064;47.912;12.308;2023-10-09T10:53:50;22.20;99.90
32660;DHT22;19064;47.912;12.308;2023-10-09T10:56:19;22.30;99.90
32660;DHT22;19064;47.912;12.308;2023-10-09T10:58:54;22.40;99.90
32660;DHT22;19064;47.912;12.308;2023-10-09T11:01:37;22.50;99.90
32660;DHT22;19064;47.912;12.308;2023-10-09T11:04:19;22.60;99.90
32660;DHT22;19064;47.912;12.308;2023-10-09T11:06:53;22.70;99.90
32660;DHT22;19064;47.912;12.308;2023-10-09T11:09:26;22.70;99.90
32660;DHT22;19064;47.912;12.308;2023-10-09T11:12:06;22.60;99.90
32660;DHT22;19064;47.912;12.308;2023-10-09T11:14:47;22.50;99.90
32660;DHT22;19064;47.912;12.308;2023-10-09T11:17:31;22.40;99.90
32660;DHT22;19064;47.912;12.308;2023-10-09T11:20:01;22.30;99.90
32660;DHT22;19064;47.912;12.308;2023-10-09T11:22:49;22.20;99.90
32660;DHT22;19064;47.912;12.308;2023-10-09T11:25:41;22.30;99.90
32660;DHT22;19064;47.912;12.308;2023-10-09T11:28:18;22.30;99.90
32660;DHT22;19064;47.912;12.308;2023-10-09T11:30:55;22.20;99.90
32660;DHT22;19064;47.912;12.308;2023-10-09T11:33:21;22.20;99.90
32660;DHT22;19064;47.912;12.308;2023-10-09T11:35:55;22.20;99.90
32660;DHT22;19064;47.912;12.308;2023-10-09T11:38:22;22.20;99.90
32660;DHT22;19064;47.912;12.308;2023-10-09T11:40:50;22.20;99.90
32660;DHT22;19064;47.912;12.308;2023-10-09T11:43:47;22.20;99.90
32660;DHT22;19064;47.912;12.308;2023-10-09T11:46:20;22.30;99.90
32660;DHT22;19064;47.912;12.308;2023-10-09T11:49:13;22.50;99.90
32660;DHT22;19064;47.912;12.308;2023-10-09T11:52:07;22.60;99.90
32660;DHT22;19064;47.912;12.308;2023-10-09T11:54:52;22.70;99.90
32660;DHT22;19064;47.912;12.308;2023-10-09T11:57:22;22.80;99.90
32660;DHT22;19064;47.912;12.308;2023-10-09T11:59:57;22.90;99.90
32660;DHT22;19064;47.912;12.308;2023-10-09T12:02:25;22.90;99.90
32660;DHT22;19064;47.912;12.308;2023-10-09T12:04:52;23.00;99.90
32660;DHT22;19064;47.912;12.308;2023-10-09T12:07:22;22.90;99.90
32660;DHT22;19064;47.912;12.308;2023-10-09T12:09:48;22.90;99.90
32660;DHT22;19064;47.912;12.308;2023-10-09T12:12:17;22.80;99.90
32660;DHT22;19064;47.912;12.308;2023-10-09T12:14:44;22.70;99.90
32660;DHT22;19064;47.912;12.308;2023-10-09T12:17:12;22.80;99.90
32660;DHT22;19064;47.912;12.308;2023-10-09T12:19:39;22.70;99.90
32660;DHT22;19064;47.912;12.308;2023-10-09T12:22:08;22.60;99.90
32660;DHT22;19064;47.912;12.308;2023-10-09T12:24:37;22.50;99.90
32660;DHT22;19064;47.912;12.308;2023-10-09T12:27:08;22.50;99.90
32660;DHT22;19064;47.912;12.308;2023-10-09T12:29:37;22.50;99.90
32660;DHT22;19064;47.912;12.308;2023-10-09T12:32:09;22.50;99.90
32660;DHT22;19064;47.912;12.308;2023-10-09T12:34:39;22.40;99.90
32660;DHT22;19064;47.912;12.308;2023-10-09T12:37:07;22.40;99.90
32660;DHT22;19064;47.912;12.308;2023-10-09T12:39:35;22.30;99.90
32660;DHT22;19064;47.912;12.308;2023-10-09T12:42:06;22.30;99.90
32660;DHT22;19064;47.912;12.308;2023-10-09T12:44:33;22.30;99.90
32660;DHT22;19064;47.912;12.308;2023-10-09T12:47:04;22.30;99.90
32660;DHT22;19064;47.912;12.308;2023-10-09T12:49:31;22.30;99.90
32660;DHT22;19064;47.912;12.308;2023-10-09T12:51:59;22.20;99.90
32660;DHT22;19064;47.912;12.308;2023-10-09T12:54:26;22.20;99.90
32660;DHT22;19064;47.912;12.308;2023-10-09T12:56:54;22.20;99.90
32660;DHT22;19064;47.912;12.308;2023-10-09T12:59:21;22.10;99.90
32660;DHT22;19064;47.912;12.308;2023-10-09T13:01:50;22.10;99.90
32660;DHT22;19064;47.912;12.308;2023-10-09T13:04:23;22.00;99.90
32660;DHT22;19064;47.912;12.308;2023-10-09T13:06:57;22.00;99.90
32660;DHT22;19064;47.912;12.308;2023-10-09T13:09:29;21.90;99.90
32660;DHT22;19064;47.912;12.308;2023-10-09T13:12:01;21.90;99.90
32660;DHT22;19064;47.912;12.308;2023-10-09T13:14:28;21.90;99.90
32660;DHT22;19064;47.912;12.308;2023-10-09T13:16:59;21.90;99.90
32660;DHT22;19064;47.912;12.308;2023-10-09T13:19:33;21.90;99.90
32660;DHT22;19064;47.912;12.308;2023-10-09T13:22:00;21.80;99.90
32660;DHT22;19064;47.912;12.308;2023-10-09T13:24:30;21.80;99.90
32660;DHT22;19064;47.912;12.308;2023-10-09T13:26:57;21.80;99.90
32660;DHT22;19064;47.912;12.308;2023-10-09T13:29:25;21.80;99.90
32660;DHT22;19064;47.912;12.308;2023-10-09T13:31:52;21.80;99.90
32660;DHT22;19064;47.912;12.308;2023-10-09T13:34:23;21.70;99.90
32660;DHT22;19064;47.912;12.308;2023-10-09T13:36:53;21.70;99.90
32660;DHT22;19064;47.912;12.308;2023-10-09T13:39:21;21.60;99.90
32660;DHT22;19064;47.912;12.308;2023-10-09T13:42:04;21.60;99.90
32660;DHT22;19064;47.912;12.308;2023-10-09T13:44:33;21.50;99.90
32660;DHT22;19064;47.912;12.308;2023-10-09T13:47:03;21.40;99.90
32660;DHT22;19064;47.912;12.308;2023-10-09T13:49:31;21.40;99.90
32660;DHT22;19064;47.912;12.308;2023-10-09T13:51:58;21.30;99.90
32660;DHT22;19064;47.912;12.308;2023-10-09T13:54:26;21.20;99.90
32660;DHT22;19064;47.912;12.308;2023-10-09T13:57:06;21.20;99.90
32660;DHT22;19064;47.912;12.308;2023-10-09T13:59:37;21.10;99.90
32660;DHT22;19064;47.912;12.308;2023-10-09T14:02:08;21.00;99.90
32660;DHT22;19064;47.912;12.308;2023-10-09T14:04:35;20.90;99.90
32660;DHT22;19064;47.912;12.308;2023-10-09T14:07:02;20.80;99.90
32660;DHT22;19064;47.912;12.308;2023-10-09T14:09:31;20.80;99.90
32660;DHT22;19064;47.912;12.308;2023-10-09T14:12:06;20.80;99.90
32660;DHT22;19064;47.912;12.308;2023-10-09T14:14:34;20.70;99.90
32660;DHT22;19064;47.912;12.308;2023-10-09T14:17:04;20.70;99.90
32660;DHT22;19064;47.912;12.308;2023-10-09T14:19:37;20.70;99.90
32660;DHT22;19064;47.912;12.308;2023-10-09T14:22:04;20.60;99.90
32660;DHT22;19064;47.912;12.308;2023-10-09T14:24:31;20.60;99.90
32660;DHT22;19064;47.912;12.308;2023-10-09T14:27:00;20.50;99.90
32660;DHT22;19064;47.912;12.308;2023-10-09T14:29:31;20.50;99.90
32660;DHT22;19064;47.912;12.308;2023-10-09T14:31:57;20.50;99.90
32660;DHT22;19064;47.912;12.308;2023-10-09T14:34:28;20.40;99.90
32660;DHT22;19064;47.912;12.308;2023-10-09T14:36:58;20.40;99.90
32660;DHT22;19064;47.912;12.308;2023-10-09T14:39:26;20.30;99.90
32660;DHT22;19064;47.912;12.308;2023-10-09T14:41:53;20.30;99.90
32660;DHT22;19064;47.912;12.308;2023-10-09T14:44:23;20.20;99.90
32660;DHT22;19064;47.912;12.308;2023-10-09T14:46:54;20.10;99.90
32660;DHT22;19064;47.912;12.308;2023-10-09T14:49:21;20.10;99.90
32660;DHT22;19064;47.912;12.308;2023-10-09T14:51:49;20.10;99.90
32660;DHT22;19064;47.912;12.308;2023-10-09T14:54:16;20.00;99.90
32660;DHT22;19064;47.912;12.308;2023-10-09T14:56:44;20.00;99.90
32660;DHT22;19064;47.912;12.308;2023-10-09T14:59:11;19.90;99.90
32660;DHT22;19064;47.912;12.308;2023-10-09T15:01:37;19.90;99.90
32660;DHT22;19064;47.912;12.308;2023-10-09T15:04:06;19.90;99.90
32660;DHT22;19064;47.912;12.308;2023-10-09T15:06:32;19.90;99.90
32660;DHT22;19064;47.912;12.308;2023-10-09T15:09:00;19.80;99.90
32660;DHT22;19064;47.912;12.308;2023-10-09T15:11:34;19.80;99.90
32660;DHT22;19064;47.912;12.308;2023-10-09T15:14:02;19.80;99.90
32660;DHT22;19064;47.912;12.308;2023-10-09T15:16:30;19.80;99.90
32660;DHT22;19064;47.912;12.308;2023-10-09T15:18:57;19.80;99.90
32660;DHT22;19064;47.912;12.308;2023-10-09T15:21:29;20.00;99.90
32660;DHT22;19064;47.912;12.308;2023-10-09T15:23:58;19.80;99.90
32660;DHT22;19064;47.912;12.308;2023-10-09T15:26:25;19.70;99.90
32660;DHT22;19064;47.912;12.308;2023-10-09T15:28:59;19.70;99.90
32660;DHT22;19064;47.912;12.308;2023-10-09T15:31:29;19.70;99.90
32660;DHT22;19064;47.912;12.308;2023-10-09T15:33:57;19.70;99.90
32660;DHT22;19064;47.912;12.308;2023-10-09T15:36:24;19.70;99.90
32660;DHT22;19064;47.912;12.308;2023-10-09T15:38:55;19.70;99.90
32660;DHT22;19064;47.912;12.308;2023-10-09T15:41:27;19.70;99.90
32660;DHT22;19064;47.912;12.308;2023-10-09T15:43:55;19.60;99.90
32660;DHT22;19064;47.912;12.308;2023-10-09T15:46:23;19.50;99.90
32660;DHT22;19064;47.912;12.308;2023-10-09T15:48:51;19.40;99.90
32660;DHT22;19064;47.912;12.308;2023-10-09T15:51:19;19.30;99.90
32660;DHT22;19064;47.912;12.308;2023-10-09T15:53:47;19.30;99.90
32660;DHT22;19064;47.912;12.308;2023-10-09T15:56:17;19.20;99.90
32660;DHT22;19064;47.912;12.308;2023-10-09T15:58:46;19.20;99.90